Flight Track Log - Related Links

Times and Time Zones

All times are in EST time to prevent confusion due to time zone crossing. See the ASQ6115 flight status page for this flight to view local times or setup timezone preferences in your user account.

Time Position Orientation Groundspeed Altitude Reporting Facility
EST Latitude Longitude Course Direction KTS MPH feet Rate Location/Type
Mon 07:45:02 PM 42.0167 -87.9667 346° North 168 193 3,200  Level Chicago TRACON
Mon 07:46:02 PM 42.0667 -88.0000 334° Northwest 226 260 4,900 900 Climbing Chicago TRACON
Mon 07:47:02 PM 42.1333 -88.0167 349° North 228 262 5,000 450 Climbing Chicago TRACON
Mon 07:48:02 PM 42.1833 -88.0167 360° North 233 268 5,800 1,678 Climbing Chicago TRACON
Mon 07:49:25 PM 42.2736 -88.0161 360° North 238 274 9,000 2,317 Climbing Chicago Center
Mon 07:50:00 PM 42.3226 -88.3226 346° North  Level Estimated
Mon 07:50:27 PM 42.3436 -88.0106 North 248 285 11,400  Level Chicago Center
Mon 07:51:29 PM 42.4200 -88.0011 North 277 319 12,000 290 Climbing Chicago Center
Mon 07:52:31 PM 42.5100 -87.9897 North 322 371 12,000  Level Chicago Center
Mon 07:53:33 PM 42.6039 -87.9803 North 337 388 12,000  Level Chicago Center
Mon 07:54:35 PM 42.7036 -88.0308 340° North 333 383 12,000 -339 Level Chicago Center
Mon 07:55:37 PM 42.7622 -88.1181 312° West 317 365 11,300 -871 Descending Chicago Center
Mon 07:56:39 PM 42.7992 -88.2333 294° West 329 379 10,200 -629 Descending Chicago Center
Mon 07:57:41 PM 42.8344 -88.3461 293° West 324 373 10,000 -97 Descending Chicago Center
Mon 07:58:43 PM 42.8683 -88.4553 293° West 316 364 10,000  Level Chicago Center
Mon 07:59:45 PM 42.9028 -88.5639 293° West 312 359 10,000  Level Chicago Center
Mon 08:00:48 PM 42.9439 -88.6928 294° West 308 354 10,000 -48 Level Chicago Center
Mon 08:01:50 PM 42.9769 -88.7994 293° West 305 351 9,900 -581 Descending Chicago Center
Mon 08:02:52 PM 42.9903 -88.8942 281° West 254 292 8,800 -1,355 Descending Chicago Center
Mon 08:03:54 PM 43.0014 -88.9867 279° West 247 284 7,100 -1,306 Descending Chicago Center
Mon 08:04:56 PM 43.0117 -89.0736 279° West 236 272 6,100 -1,306 Descending Chicago Center
Mon 08:05:58 PM 43.0236 -89.1589 281° West 233 268 4,400 -1,548 Descending Chicago Center
Mon 08:07:00 PM 43.0339 -89.2561 278° West 225 259 2,900 -774 Descending Chicago Center
Mon 08:08:02 PM 43.0500 -89.3169 290° West 194 223 2,800 -435 Descending Chicago Center
Mon 08:09:04 PM 43.0761 -89.3433 324° Northwest 152 175 2,000 -677 Descending Chicago Center
Mon 08:10:06 PM 43.1086 -89.3447 358° North 131 151 1,400 -387 Descending Chicago Center
Mon 08:11:08 PM 43.1406 -89.3442 North 128 147 1,200 -194 Descending Chicago Center

Login

Don't have an account? Register now (free) for customized features, flight alerts, and more!